Time;durP1;ratioP1;P1;durP2;ratioP2;P2;SDS_P1;SDS_P2;PMS_P1;PMS_P2;Temp;Humidity;BMP_temperature;BMP_pressure;BME280_temperature;BME280_humidity;BME280_pressure;Samples;Min_cycle;Max_cycle;Signal;HPM_P1;HPM_P2
2023/06/03 00:01:28;;;;;;;5.13;1.30;;;12.20;99.90;;;;;;5068226;28;20049;-62
2023/06/03 00:03:54;;;;;;;1.88;1.10;;;12.20;99.90;;;;;;5068833;28;20051;-60
2023/06/03 00:06:20;;;;;;;3.03;1.20;;;12.10;99.90;;;;;;5069550;28;20479;-63
2023/06/03 00:08:46;;;;;;;4.43;1.70;;;12.10;99.90;;;;;;5070465;28;20085;-63
2023/06/03 00:11:13;;;;;;;4.88;1.17;;;12.10;99.90;;;;;;5071773;28;20437;-64
2023/06/03 00:13:39;;;;;;;3.22;0.90;;;12.10;99.90;;;;;;5072442;28;20040;-62
2023/06/03 00:16:05;;;;;;;1.67;1.10;;;12.00;99.90;;;;;;5072741;28;20037;-62
2023/06/03 00:18:31;;;;;;;1.83;1.10;;;12.00;99.90;;;;;;5071990;28;20040;-63
2023/06/03 00:20:57;;;;;;;3.92;0.98;;;12.00;99.90;;;;;;5072532;28;20180;-63
2023/06/03 00:23:23;;;;;;;3.15;1.10;;;11.90;99.90;;;;;;5073031;28;20032;-63
2023/06/03 00:25:49;;;;;;;2.08;0.93;;;11.90;99.90;;;;;;5071386;28;20453;-63
2023/06/03 00:28:15;;;;;;;1.40;1.00;;;11.90;99.90;;;;;;5071739;28;20094;-63
2023/06/03 00:30:41;;;;;;;2.05;0.70;;;11.80;99.90;;;;;;5073986;28;20032;-62
2023/06/03 00:33:06;;;;;;;3.83;1.10;;;11.80;99.90;;;;;;5072514;28;20047;-62
2023/06/03 00:35:34;;;;;;;1.77;1.00;;;11.80;99.90;;;;;;5071324;28;20394;-64
2023/06/03 00:37:59;;;;;;;1.23;0.70;;;11.80;99.90;;;;;;5072634;28;20143;-63
2023/06/03 00:40:25;;;;;;;1.58;1.10;;;11.70;99.90;;;;;;5072588;28;20116;-63
2023/06/03 00:42:51;;;;;;;1.98;0.82;;;11.70;99.90;;;;;;5068870;28;20098;-63
2023/06/03 00:45:17;;;;;;;1.83;0.93;;;11.60;99.90;;;;;;5071976;28;20471;-63
2023/06/03 00:47:43;;;;;;;2.75;1.05;;;11.60;99.90;;;;;;5074603;28;20124;-63
2023/06/03 00:50:11;;;;;;;1.75;0.98;;;11.50;99.90;;;;;;5071955;28;20556;-61
2023/06/03 00:52:38;;;;;;;2.58;1.00;;;11.50;99.90;;;;;;5070422;28;20064;-62
2023/06/03 00:55:05;;;;;;;2.63;1.23;;;11.50;99.90;;;;;;5071898;28;20525;-63
2023/06/03 00:57:30;;;;;;;2.40;0.90;;;11.40;99.90;;;;;;5053962;28;20033;-61
2023/06/03 00:59:56;;;;;;;3.58;1.00;;;11.40;99.90;;;;;;5072114;28;20033;-63
2023/06/03 01:02:23;;;;;;;2.40;1.20;;;11.40;99.90;;;;;;5069660;28;20036;-63
2023/06/03 01:04:49;;;;;;;1.85;1.00;;;11.30;99.90;;;;;;5068617;28;20423;-62
2023/06/03 01:07:28;;;;;;;2.10;0.88;;;11.30;99.90;;;;;;5067068;28;20055;-62
2023/06/03 01:10:21;;;;;;;5.03;1.10;;;11.20;99.90;;;;;;5070569;28;20051;-61
2023/06/03 01:13:06;;;;;;;;;;;11.20;99.90;;;;;;5069543;28;20044;-62
2023/06/03 01:15:35;;;;;;;2.15;1.08;;;11.10;99.90;;;;;;5070577;28;19928;-61
2023/06/03 01:18:04;;;;;;;1.02;0.82;;;11.10;99.90;;;;;;5069972;28;20399;-62
2023/06/03 01:20:30;;;;;;;2.47;1.10;;;11.10;99.90;;;;;;5069843;28;20391;-63
2023/06/03 01:23:23;;;;;;;1.65;0.75;;;11.10;99.90;;;;;;5068755;28;20044;-63
2023/06/03 01:25:52;;;;;;;3.10;1.02;;;11.00;99.90;;;;;;5070463;28;20507;-63
2023/06/03 01:28:20;;;;;;;1.90;1.20;;;11.00;99.90;;;;;;5072261;28;20036;-62
2023/06/03 01:30:47;;;;;;;1.98;1.00;;;11.00;99.90;;;;;;5071890;28;20032;-62
2023/06/03 01:33:13;;;;;;;1.38;0.80;;;10.90;99.90;;;;;;5068501;28;20044;-63
2023/06/03 01:35:40;;;;;;;1.52;1.08;;;10.90;99.90;;;;;;5053511;28;20028;-63
2023/06/03 01:38:07;;;;;;;3.88;1.05;;;10.80;99.90;;;;;;5068095;28;20040;-63
2023/06/03 01:40:34;;;;;;;1.60;0.90;;;10.80;99.90;;;;;;5070376;28;20044;-63
2023/06/03 01:43:00;;;;;;;2.47;0.90;;;10.80;99.90;;;;;;5070135;28;20040;-61
2023/06/03 01:45:25;;;;;;;1.83;0.95;;;10.70;99.90;;;;;;5070521;28;20089;-61
2023/06/03 01:47:51;;;;;;;2.03;0.80;;;10.70;99.90;;;;;;5070879;28;20043;-62
2023/06/03 01:50:17;;;;;;;2.35;0.90;;;10.60;99.90;;;;;;5097381;28;20036;-63
2023/06/03 01:52:46;;;;;;;1.27;0.90;;;10.50;99.90;;;;;;5076999;28;20078;-61
2023/06/03 01:55:12;;;;;;;1.80;0.80;;;10.40;99.90;;;;;;5070041;28;20394;-63
2023/06/03 01:57:37;;;;;;;3.03;0.90;;;10.40;99.90;;;;;;5067596;28;20060;-62
2023/06/03 02:00:07;;;;;;;2.45;0.98;;;10.40;99.90;;;;;;5067683;28;20407;-63
2023/06/03 02:02:33;;;;;;;1.33;1.05;;;10.30;99.90;;;;;;5068522;28;20046;-63
2023/06/03 02:04:59;;;;;;;1.70;0.80;;;10.20;99.90;;;;;;5069014;28;20044;-63
2023/06/03 02:07:30;;;;;;;1.13;0.93;;;10.20;99.90;;;;;;5069801;28;20041;-63
2023/06/03 02:09:56;;;;;;;1.77;1.10;;;10.10;99.90;;;;;;5052742;28;20066;-66
2023/06/03 02:12:23;;;;;;;1.92;1.15;;;10.10;99.90;;;;;;5071025;28;20438;-61
2023/06/03 02:14:53;;;;;;;1.80;0.95;;;10.00;99.90;;;;;;5053387;28;20054;-63
2023/06/03 02:17:22;;;;;;;1.80;1.00;;;10.00;99.90;;;;;;5069566;28;20076;-63
2023/06/03 02:19:48;;;;;;;2.17;1.00;;;10.00;99.90;;;;;;5066599;28;20117;-62
2023/06/03 02:22:14;;;;;;;1.30;1.20;;;9.90;99.90;;;;;;5068587;28;20485;-64
2023/06/03 02:24:39;;;;;;;1.60;0.90;;;9.90;99.90;;;;;;5071939;28;20040;-62
2023/06/03 02:27:06;;;;;;;1.33;0.90;;;9.90;99.90;;;;;;5069533;28;20428;-62
2023/06/03 02:29:32;;;;;;;2.88;0.90;;;9.80;99.90;;;;;;5070266;28;20040;-60
2023/06/03 02:31:59;;;;;;;1.40;0.80;;;9.80;99.90;;;;;;5068938;28;20055;-61
2023/06/03 02:34:26;;;;;;;1.67;0.90;;;9.80;99.90;;;;;;5065672;28;20340;-63
2023/06/03 02:36:52;;;;;;;2.25;0.98;;;9.70;99.90;;;;;;5068420;28;20036;-61
2023/06/03 02:39:18;;;;;;;1.92;0.90;;;9.70;99.90;;;;;;5065950;28;20129;-60
2023/06/03 02:41:46;;;;;;;1.55;0.80;;;9.70;99.90;;;;;;5068035;28;20481;-62
2023/06/03 02:44:13;;;;;;;1.60;0.90;;;9.70;99.90;;;;;;5070115;28;20044;-62
2023/06/03 02:46:39;;;;;;;1.58;0.90;;;9.70;99.90;;;;;;5071493;28;20041;-62
2023/06/03 02:49:06;;;;;;;1.83;0.75;;;9.70;99.90;;;;;;5067009;28;20091;-64
2023/06/03 02:51:32;;;;;;;3.47;1.02;;;9.70;99.90;;;;;;5067435;28;20055;-61
2023/06/03 02:53:58;;;;;;;1.35;0.90;;;9.70;99.90;;;;;;5069998;28;20129;-63
2023/06/03 02:56:24;;;;;;;3.03;1.88;;;9.60;99.90;;;;;;5069976;28;20090;-64
2023/06/03 02:58:51;;;;;;;2.85;0.93;;;9.60;99.90;;;;;;5069932;28;20035;-62
2023/06/03 03:01:18;;;;;;;2.38;1.05;;;9.60;99.90;;;;;;5066423;28;20434;-62
2023/06/03 03:03:44;;;;;;;2.05;0.90;;;9.60;99.90;;;;;;5069776;28;20083;-61
2023/06/03 03:06:19;;;;;;;2.50;0.80;;;9.60;99.90;;;;;;5069634;28;20075;-64
2023/06/03 03:08:46;;;;;;;3.65;1.00;;;9.50;99.90;;;;;;5068690;28;20040;-62
2023/06/03 03:11:13;;;;;;;1.92;1.05;;;9.50;99.90;;;;;;5068478;28;20803;-62
2023/06/03 03:13:39;;;;;;;1.63;1.00;;;9.50;99.90;;;;;;5069854;28;20036;-60
2023/06/03 03:16:04;;;;;;;1.13;1.00;;;9.50;99.90;;;;;;5068630;28;20117;-63
2023/06/03 03:18:30;;;;;;;2.40;0.85;;;9.40;99.90;;;;;;5068961;28;20387;-63
2023/06/03 03:20:56;;;;;;;0.88;0.70;;;9.40;99.90;;;;;;5068192;28;20076;-63
2023/06/03 03:23:22;;;;;;;2.03;1.00;;;9.40;99.90;;;;;;5069719;28;20073;-63
2023/06/03 03:25:48;;;;;;;2.63;1.27;;;9.40;99.90;;;;;;5068690;28;20048;-63
2023/06/03 03:28:14;;;;;;;2.03;0.80;;;9.30;99.90;;;;;;5069908;28;20115;-63
2023/06/03 03:30:39;;;;;;;0.95;0.80;;;9.30;99.90;;;;;;5068768;28;20040;-62
2023/06/03 03:33:05;;;;;;;7.40;1.00;;;9.30;99.90;;;;;;5068159;28;20105;-62
2023/06/03 03:35:32;;;;;;;3.13;0.90;;;9.30;99.90;;;;;;5068388;28;20127;-62
2023/06/03 03:38:02;;;;;;;1.65;1.00;;;9.30;99.90;;;;;;5070017;28;20407;-64
2023/06/03 03:40:29;;;;;;;3.25;1.10;;;9.30;99.90;;;;;;5068845;28;20123;-63
2023/06/03 03:42:55;;;;;;;2.22;0.80;;;9.30;99.90;;;;;;5051153;28;20043;-64
2023/06/03 03:45:26;;;;;;;1.23;0.73;;;9.30;99.90;;;;;;5073782;28;20036;-64
2023/06/03 03:47:54;;;;;;;1.85;0.98;;;9.30;99.90;;;;;;5071986;28;20048;-63
2023/06/03 03:50:56;;;;;;;2.60;0.90;;;9.40;99.90;;;;;;5071658;28;20418;-63
2023/06/03 03:53:34;;;;;;;1.63;0.90;;;9.40;99.90;;;;;;5031025;28;20527;-61
2023/06/03 03:56:00;;;;;;;1.98;0.90;;;9.40;99.90;;;;;;5047100;28;20148;-60
2023/06/03 03:58:40;;;;;;;1.20;0.90;;;9.50;99.90;;;;;;5014658;28;20085;-63
2023/06/03 04:01:12;;;;;;;2.47;0.90;;;9.50;99.90;;;;;;5014288;28;20574;-63
2023/06/03 04:03:40;;;;;;;3.45;1.05;;;9.60;99.90;;;;;;5014518;28;20077;-62
2023/06/03 04:06:14;;;;;;;1.95;0.90;;;9.60;99.90;;;;;;5030365;28;20042;-63
2023/06/03 04:08:45;;;;;;;2.13;1.02;;;9.70;99.90;;;;;;5014319;28;20045;-63
2023/06/03 04:11:17;;;;;;;6.67;1.23;;;9.70;99.90;;;;;;5016075;28;20088;-62
2023/06/03 04:13:42;;;;;;;1.75;0.90;;;9.80;99.90;;;;;;5014461;28;20084;-63
2023/06/03 04:16:12;;;;;;;1.85;1.00;;;9.80;99.90;;;;;;5013831;28;20049;-63
2023/06/03 04:18:41;;;;;;;4.70;1.00;;;9.90;99.90;;;;;;5030923;28;20451;-63
2023/06/03 04:21:14;;;;;;;3.40;1.08;;;9.90;99.90;;;;;;5014160;28;20459;-64
2023/06/03 04:23:40;;;;;;;;;;;10.00;99.90;;;;;;5031118;28;20040;-62
2023/06/03 04:26:07;;;;;;;1.95;0.90;;;10.00;99.90;;;;;;5010795;28;19921;-64
2023/06/03 04:28:32;;;;;;;4.25;1.10;;;10.00;99.90;;;;;;5074096;28;20032;-62
2023/06/03 04:30:58;;;;;;;4.18;0.80;;;10.10;99.90;;;;;;5072556;28;20059;-60
2023/06/03 04:33:23;;;;;;;1.92;0.95;;;10.20;99.90;;;;;;5070036;28;20044;-61
2023/06/03 04:35:50;;;;;;;1.73;1.17;;;10.30;99.90;;;;;;5071431;28;20034;-64
2023/06/03 04:38:15;;;;;;;2.35;0.90;;;10.30;99.90;;;;;;5070878;28;20493;-63
2023/06/03 04:40:41;;;;;;;1.27;0.95;;;10.40;99.90;;;;;;5071088;28;20045;-64
2023/06/03 04:43:07;;;;;;;3.72;1.13;;;10.40;99.90;;;;;;5071335;28;20060;-64
2023/06/03 04:45:34;;;;;;;3.33;1.27;;;10.50;99.90;;;;;;5065058;28;20044;-64
2023/06/03 04:48:01;;;;;;;3.28;1.15;;;10.60;99.90;;;;;;5067150;28;20059;-62
2023/06/03 04:50:34;;;;;;;2.00;0.90;;;10.70;99.90;;;;;;5067200;28;20044;-64
2023/06/03 04:53:00;;;;;;;3.38;1.15;;;10.70;99.90;;;;;;5054303;28;20562;-63
2023/06/03 04:55:26;;;;;;;2.35;1.08;;;10.80;99.90;;;;;;5069123;28;20128;-64
2023/06/03 04:57:52;;;;;;;3.13;1.10;;;10.90;99.90;;;;;;5070652;28;20039;-63
2023/06/03 05:00:19;;;;;;;3.58;1.00;;;11.10;99.90;;;;;;5054216;28;20059;-64
2023/06/03 05:02:55;;;;;;;2.03;0.90;;;11.10;99.90;;;;;;5071645;28;20119;-62
2023/06/03 05:05:24;;;;;;;4.97;1.30;;;11.20;99.90;;;;;;5070621;28;20070;-61
2023/06/03 05:07:51;;;;;;;2.88;1.20;;;11.30;99.90;;;;;;5070391;28;20097;-63
2023/06/03 05:10:17;;;;;;;1.67;1.00;;;11.40;99.90;;;;;;5071670;28;20032;-62
2023/06/03 05:12:43;;;;;;;2.08;1.20;;;11.50;99.90;;;;;;5070483;28;20064;-60
2023/06/03 05:15:09;;;;;;;2.72;1.10;;;11.60;99.90;;;;;;5054286;28;20087;-62
2023/06/03 05:17:39;;;;;;;3.65;0.90;;;11.70;99.90;;;;;;5071529;28;20048;-64
2023/06/03 05:20:08;;;;;;;3.80;1.20;;;11.80;99.90;;;;;;5072037;28;20107;-61
2023/06/03 05:22:34;;;;;;;3.20;1.00;;;12.00;99.90;;;;;;5070437;28;20452;-66
2023/06/03 05:25:02;;;;;;;3.80;1.10;;;12.10;99.90;;;;;;5070427;28;20047;-61
2023/06/03 05:27:28;;;;;;;4.53;1.25;;;12.30;99.90;;;;;;5070090;28;20750;-61
2023/06/03 05:29:53;;;;;;;2.13;1.05;;;12.40;99.60;;;;;;5071119;28;20116;-64
2023/06/03 05:32:19;;;;;;;2.85;1.17;;;12.60;99.40;;;;;;5069541;28;20097;-62
2023/06/03 05:34:45;;;;;;;3.63;1.10;;;12.70;99.10;;;;;;5071087;28;20079;-63
2023/06/03 05:37:10;;;;;;;3.95;1.08;;;12.80;98.60;;;;;;5072866;28;20051;-63
2023/06/03 05:39:36;;;;;;;6.38;1.27;;;12.90;98.40;;;;;;5070684;28;20050;-62
2023/06/03 05:42:02;;;;;;;4.55;1.40;;;13.00;98.00;;;;;;5071427;28;20123;-64
2023/06/03 05:44:27;;;;;;;3.90;1.30;;;13.10;98.10;;;;;;5053815;28;20048;-62
2023/06/03 05:46:53;;;;;;;3.15;1.00;;;13.20;97.50;;;;;;5053429;28;20048;-65
2023/06/03 05:49:19;;;;;;;1.83;1.35;;;13.30;97.40;;;;;;5067158;28;20047;-63
2023/06/03 05:51:45;;;;;;;5.88;1.10;;;13.40;97.30;;;;;;5067724;28;20052;-61
2023/06/03 05:54:10;;;;;;;5.03;1.05;;;13.50;96.90;;;;;;5070838;28;20048;-63
2023/06/03 05:56:36;;;;;;;3.70;0.98;;;13.60;96.90;;;;;;5071300;28;20419;-62
2023/06/03 05:59:02;;;;;;;2.15;1.10;;;13.70;96.60;;;;;;5066469;28;20056;-63
2023/06/03 06:01:28;;;;;;;3.17;1.10;;;13.90;96.70;;;;;;5068618;28;20115;-63
2023/06/03 06:03:54;;;;;;;2.22;1.10;;;14.00;96.30;;;;;;5068828;28;20054;-64
2023/06/03 06:06:20;;;;;;;3.58;1.00;;;14.10;96.10;;;;;;5070976;28;20040;-62
2023/06/03 06:08:46;;;;;;;1.88;0.95;;;14.20;95.80;;;;;;5070219;28;20491;-62
2023/06/03 06:11:11;;;;;;;1.85;1.02;;;14.30;95.60;;;;;;5070523;28;20033;-63
2023/06/03 06:13:37;;;;;;;1.58;0.90;;;14.40;95.40;;;;;;5068105;28;20036;-64
2023/06/03 06:16:04;;;;;;;2.97;1.00;;;14.50;95.40;;;;;;5065745;28;20040;-63
2023/06/03 06:18:30;;;;;;;2.78;1.00;;;14.70;95.30;;;;;;5052123;28;20048;-64
2023/06/03 06:20:57;;;;;;;2.88;1.13;;;14.90;95.30;;;;;;5054961;28;20075;-61
2023/06/03 06:23:22;;;;;;;1.52;0.90;;;15.00;94.20;;;;;;5070479;28;20040;-60
2023/06/03 06:25:50;;;;;;;2.50;0.80;;;15.10;94.20;;;;;;5068298;28;20040;-62
2023/06/03 06:28:21;;;;;;;5.00;1.00;;;15.20;93.80;;;;;;5068825;28;20068;-62
2023/06/03 06:30:46;;;;;;;4.28;0.90;;;15.30;93.30;;;;;;5069214;28;20432;-63
2023/06/03 06:33:16;;;;;;;1.40;0.80;;;15.40;93.30;;;;;;5069616;28;20119;-63
2023/06/03 06:35:42;;;;;;;2.58;0.77;;;15.50;92.90;;;;;;5069024;28;20115;-62
2023/06/03 06:38:10;;;;;;;2.92;0.80;;;15.70;93.20;;;;;;5067976;28;20037;-63
2023/06/03 06:40:37;;;;;;;1.70;0.85;;;15.80;92.90;;;;;;5071320;28;20119;-63
2023/06/03 06:43:03;;;;;;;2.17;0.80;;;16.00;92.80;;;;;;5068001;28;20060;-62
2023/06/03 06:45:33;;;;;;;5.28;1.10;;;16.20;92.70;;;;;;5068298;28;20407;-63
2023/06/03 06:48:01;;;;;;;3.55;0.90;;;16.30;92.00;;;;;;5068978;28;20076;-62
2023/06/03 06:50:29;;;;;;;2.15;1.00;;;16.40;92.00;;;;;;5069238;28;20059;-63
2023/06/03 06:52:55;;;;;;;2.95;1.00;;;16.50;90.80;;;;;;5067407;28;20044;-60
2023/06/03 06:56:00;;;;;;;3.90;1.50;;;16.50;91.00;;;;;;5067771;28;20063;-64
2023/06/03 06:58:30;;;;;;;8.38;2.30;;;16.60;90.60;;;;;;5048067;28;20376;-63
2023/06/03 07:00:57;;;;;;;4.80;1.60;;;16.70;90.20;;;;;;5068653;28;20067;-62
2023/06/03 07:03:23;;;;;;;7.05;2.15;;;16.80;89.80;;;;;;5069897;28;20376;-63
2023/06/03 07:05:52;;;;;;;2.55;0.93;;;16.70;89.80;;;;;;5068348;28;20041;-61
2023/06/03 07:08:18;;;;;;;2.80;1.02;;;16.70;89.40;;;;;;5068998;28;20040;-63
2023/06/03 07:10:44;;;;;;;5.15;0.90;;;16.80;88.90;;;;;;5072669;28;20040;-62
2023/06/03 07:13:10;;;;;;;2.80;0.80;;;16.90;89.20;;;;;;5068200;28;20162;-64
2023/06/03 07:15:39;;;;;;;2.35;0.90;;;17.10;90.00;;;;;;5069251;28;20122;-62
2023/06/03 07:18:05;;;;;;;3.53;0.80;;;17.30;89.50;;;;;;5067887;28;20083;-60
2023/06/03 07:20:36;;;;;;;2.10;0.90;;;17.50;88.90;;;;;;5073184;28;20040;-61
2023/06/03 07:23:06;;;;;;;1.13;0.77;;;17.60;87.30;;;;;;5074740;28;20085;-61
2023/06/03 07:25:38;;;;;;;1.40;0.70;;;17.60;87.40;;;;;;5074756;28;20083;-62
2023/06/03 07:28:07;;;;;;;6.30;1.00;;;17.40;86.60;;;;;;5073204;28;20086;-64
2023/06/03 07:30:36;;;;;;;2.35;0.90;;;17.20;87.00;;;;;;5072209;28;20534;-62
2023/06/03 07:33:05;;;;;;;2.75;0.80;;;17.00;86.40;;;;;;5073816;28;20539;-62
2023/06/03 07:35:31;;;;;;;1.35;0.80;;;16.90;86.50;;;;;;5072416;28;20039;-62
2023/06/03 07:37:57;;;;;;;1.83;0.85;;;16.90;87.50;;;;;;5073575;28;20047;-61
2023/06/03 07:40:41;;;;;;;3.17;0.90;;;17.10;90.00;;;;;;5070278;28;20048;-63
2023/06/03 07:43:07;;;;;;;1.52;0.90;;;17.30;88.30;;;;;;5074535;28;20032;-63
2023/06/03 07:45:36;;;;;;;0.88;0.68;;;17.50;87.70;;;;;;5071795;28;20069;-61
2023/06/03 07:48:04;;;;;;;1.70;0.93;;;17.70;87.60;;;;;;5073120;28;20044;-60
2023/06/03 07:50:30;;;;;;;4.15;0.60;;;17.90;87.30;;;;;;5054694;28;20032;-62
2023/06/03 07:53:04;;;;;;;1.17;0.77;;;17.70;88.10;;;;;;5071881;28;20071;-62
2023/06/03 07:55:44;;;;;;;2.38;0.88;;;17.50;86.50;;;;;;5054968;28;20040;-61
2023/06/03 07:58:11;;;;;;;2.75;0.88;;;17.40;87.80;;;;;;5055309;28;20045;-62
2023/06/03 08:00:45;;;;;;;1.33;0.80;;;17.40;87.40;;;;;;5071681;28;20036;-63
2023/06/03 08:03:25;;;;;;;3.15;0.60;;;17.40;86.50;;;;;;5073179;28;20039;-63
2023/06/03 08:05:51;;;;;;;3.85;1.00;;;17.30;85.90;;;;;;5072189;28;20068;-62
2023/06/03 08:08:23;;;;;;;2.17;0.73;;;17.20;87.10;;;;;;5069669;28;20114;-60
2023/06/03 08:10:49;;;;;;;2.97;0.77;;;17.20;88.30;;;;;;5060151;28;20043;-61
2023/06/03 08:13:17;;;;;;;2.40;0.88;;;17.10;87.80;;;;;;5069307;28;20541;-61
2023/06/03 08:15:43;;;;;;;1.42;0.68;;;17.10;88.10;;;;;;5072560;28;20060;-58
2023/06/03 08:18:09;;;;;;;2.83;0.70;;;17.30;88.30;;;;;;5069023;28;20098;-63
2023/06/03 08:20:36;;;;;;;0.77;0.60;;;17.60;89.40;;;;;;5071318;28;20040;-60
2023/06/03 08:23:03;;;;;;;1.95;0.60;;;17.70;87.90;;;;;;5069318;28;20041;-62
2023/06/03 08:25:29;;;;;;;1.02;0.63;;;17.80;85.80;;;;;;5070668;28;20036;-61
2023/06/03 08:27:54;;;;;;;2.13;0.70;;;18.00;85.40;;;;;;5073668;28;20063;-64
2023/06/03 08:30:21;;;;;;;1.73;0.70;;;18.20;84.30;;;;;;5072220;28;20035;-61
2023/06/03 08:32:47;;;;;;;1.63;0.60;;;18.10;84.00;;;;;;5069156;28;20468;-62
2023/06/03 08:35:19;;;;;;;3.42;0.85;;;18.00;83.70;;;;;;5051589;28;20044;-63
2023/06/03 08:37:45;;;;;;;1.17;0.60;;;18.20;82.00;;;;;;5070666;28;20484;-61
2023/06/03 08:40:13;;;;;;;1.48;0.70;;;18.50;82.10;;;;;;5070500;28;20051;-63
2023/06/03 08:42:44;;;;;;;1.50;0.50;;;18.80;81.20;;;;;;5068953;28;20409;-62
2023/06/03 08:45:14;;;;;;;1.52;0.60;;;19.20;80.40;;;;;;5068947;28;20047;-63
2023/06/03 08:48:06;;;;;;;1.98;0.60;;;19.50;80.50;;;;;;5070561;28;20395;-64
2023/06/03 08:50:33;;;;;;;1.90;0.73;;;19.50;78.20;;;;;;5067599;28;20396;-63
2023/06/03 08:53:08;;;;;;;2.50;0.75;;;19.40;77.90;;;;;;5070407;28;20396;-62
2023/06/03 08:55:36;;;;;;;1.33;0.70;;;19.20;78.10;;;;;;5071768;28;20066;-62
2023/06/03 08:58:25;;;;;;;2.00;0.75;;;18.90;76.50;;;;;;5072223;28;20075;-61
2023/06/03 09:01:00;;;;;;;1.67;0.60;;;18.60;77.30;;;;;;5071224;28;20040;-63
2023/06/03 09:03:26;;;;;;;2.17;0.60;;;18.30;75.70;;;;;;5070374;28;20052;-64
2023/06/03 09:05:53;;;;;;;3.67;1.10;;;18.00;76.60;;;;;;5067902;28;20453;-63
2023/06/03 09:08:20;;;;;;;1.00;0.60;;;17.80;77.00;;;;;;5071054;28;20045;-63
2023/06/03 09:10:47;;;;;;;1.38;0.60;;;17.60;76.80;;;;;;5070906;28;20505;-62
2023/06/03 09:13:15;;;;;;;3.30;0.65;;;17.50;76.00;;;;;;5064588;28;20043;-64
2023/06/03 09:15:42;;;;;;;4.60;0.73;;;17.30;75.50;;;;;;5096591;28;20040;-64
2023/06/03 09:18:08;;;;;;;1.10;0.55;;;17.20;75.40;;;;;;5071451;28;20040;-64
2023/06/03 09:20:37;;;;;;;1.90;0.55;;;17.00;74.80;;;;;;5073307;28;20124;-63
2023/06/03 09:23:03;;;;;;;2.08;0.50;;;17.00;73.70;;;;;;5069569;28;20057;-64
2023/06/03 09:25:29;;;;;;;0.70;0.45;;;16.90;75.90;;;;;;5070879;28;20036;-62
2023/06/03 09:27:54;;;;;;;1.08;0.50;;;16.90;75.30;;;;;;5068059;28;20066;-63
2023/06/03 09:30:20;;;;;;;3.55;0.70;;;17.10;75.70;;;;;;5074201;28;20053;-61
2023/06/03 09:32:46;;;;;;;0.93;0.70;;;17.40;75.40;;;;;;5063699;28;20548;-62
2023/06/03 09:35:13;;;;;;;2.70;0.60;;;17.90;75.80;;;;;;5069457;28;20028;-64
2023/06/03 09:37:56;;;;;;;1.23;0.60;;;18.50;76.70;;;;;;5065423;28;20060;-64
2023/06/03 09:40:27;;;;;;;2.92;0.63;;;19.00;78.20;;;;;;5099392;28;20040;-62
2023/06/03 09:42:52;;;;;;;1.85;0.68;;;19.50;76.20;;;;;;5057834;28;20123;-62
2023/06/03 09:45:29;;;;;;;1.27;0.70;;;19.90;77.00;;;;;;5068392;28;20147;-65
2023/06/03 09:47:59;;;;;;;2.60;0.70;;;20.20;73.30;;;;;;5066181;28;20039;-62
2023/06/03 09:50:27;;;;;;;3.30;0.70;;;20.50;75.00;;;;;;5067351;28;20036;-63
2023/06/03 09:52:53;;;;;;;2.75;0.60;;;20.70;73.30;;;;;;5052643;28;20102;-64
2023/06/03 09:55:19;;;;;;;1.20;0.70;;;20.90;71.20;;;;;;5067995;28;20040;-63
2023/06/03 09:58:02;;;;;;;0.60;0.50;;;21.10;70.00;;;;;;5065693;28;20044;-64
2023/06/03 10:00:27;;;;;;;1.25;0.60;;;21.30;69.10;;;;;;5069091;28;20127;-63
2023/06/03 10:03:08;;;;;;;1.42;0.60;;;21.40;68.40;;;;;;5069322;28;20178;-63
2023/06/03 10:05:35;;;;;;;2.05;0.80;;;21.40;65.90;;;;;;5070414;28;20037;-62
2023/06/03 10:08:03;;;;;;;1.25;0.50;;;21.50;65.70;;;;;;5070667;28;20120;-63
2023/06/03 10:10:54;;;;;;;1.80;0.73;;;21.40;64.20;;;;;;5070806;28;20044;-62
2023/06/03 10:13:21;;;;;;;3.50;0.70;;;21.50;64.20;;;;;;5066744;28;20029;-63
2023/06/03 10:15:48;;;;;;;2.38;0.60;;;21.70;63.60;;;;;;5068736;28;20045;-65
2023/06/03 10:18:14;;;;;;;1.48;0.68;;;21.70;64.40;;;;;;5069010;28;20052;-65
2023/06/03 10:20:40;;;;;;;3.92;0.60;;;22.00;65.80;;;;;;5070719;28;20399;-64
2023/06/03 10:23:08;;;;;;;2.60;0.70;;;22.10;64.50;;;;;;5068729;28;20044;-64
2023/06/03 10:25:46;;;;;;;1.42;0.70;;;22.10;62.70;;;;;;5052387;28;20049;-64
2023/06/03 10:28:13;;;;;;;2.03;0.80;;;22.20;63.00;;;;;;5068698;28;20082;-64
2023/06/03 10:30:40;;;;;;;1.88;0.60;;;22.10;62.70;;;;;;5069027;28;20584;-65
2023/06/03 10:33:08;;;;;;;1.17;0.47;;;22.20;63.10;;;;;;5069188;28;20101;-64
2023/06/03 10:35:35;;;;;;;1.85;0.60;;;22.40;63.60;;;;;;5070462;28;20043;-63
2023/06/03 10:38:03;;;;;;;1.58;0.80;;;22.60;62.70;;;;;;5069249;28;20472;-64
2023/06/03 10:40:29;;;;;;;1.88;0.63;;;22.60;63.20;;;;;;5069331;28;20070;-62
2023/06/03 10:42:56;;;;;;;2.17;0.60;;;22.70;62.70;;;;;;5069249;28;20048;-62
2023/06/03 10:45:23;;;;;;;1.33;0.60;;;23.00;62.40;;;;;;5068486;28;20101;-65
2023/06/03 10:47:52;;;;;;;2.95;0.50;;;23.10;61.90;;;;;;5070647;28;20052;-63
2023/06/03 10:50:38;;;;;;;1.63;0.70;;;23.20;60.40;;;;;;5070423;28;20045;-64
2023/06/03 10:53:15;;;;;;;2.58;0.50;;;23.10;58.70;;;;;;5059455;28;20144;-64
2023/06/03 10:56:18;;;;;;;3.78;0.70;;;23.20;59.00;;;;;;5068684;28;20509;-63
2023/06/03 10:58:44;;;;;;;;;;;23.10;56.60;;;;;;5052746;28;20561;-64
2023/06/03 11:01:10;;;;;;;2.38;0.65;;;23.10;56.90;;;;;;5052219;28;19926;-64
2023/06/03 11:03:59;;;;;;;1.52;0.70;;;23.10;57.90;;;;;;5069303;28;20386;-64
2023/06/03 11:06:28;;;;;;;2.10;0.70;;;23.10;55.60;;;;;;5068733;28;20547;-64
2023/06/03 11:09:05;;;;;;;1.58;0.80;;;23.00;57.50;;;;;;5068512;28;20037;-65
2023/06/03 11:11:52;;;;;;;3.60;0.90;;;23.20;57.50;;;;;;5069068;28;20041;-63
2023/06/03 11:14:27;;;;;;;2.85;0.70;;;23.30;56.70;;;;;;5069034;28;20048;-64
2023/06/03 11:16:59;;;;;;;1.50;0.60;;;23.40;56.40;;;;;;5068896;28;20463;-64
2023/06/03 11:19:44;;;;;;;2.95;1.58;;;23.50;57.10;;;;;;5068518;28;20438;-64
2023/06/03 11:22:13;;;;;;;6.45;1.10;;;23.60;57.20;;;;;;5068797;28;20041;-66
2023/06/03 11:24:38;;;;;;;2.65;0.80;;;23.60;57.70;;;;;;5068865;28;20094;-63
2023/06/03 11:27:10;;;;;;;15.48;1.92;;;23.70;57.00;;;;;;5068395;28;20050;-64
2023/06/03 11:29:48;;;;;;;1.50;0.70;;;23.60;55.40;;;;;;5068281;28;20037;-66
2023/06/03 11:32:15;;;;;;;16.10;2.78;;;23.50;55.30;;;;;;5068541;28;20044;-65
2023/06/03 11:34:41;;;;;;;2.78;0.68;;;23.40;55.30;;;;;;5070021;28;20446;-64
2023/06/03 11:37:07;;;;;;;3.75;0.50;;;23.30;55.10;;;;;;5068457;28;20076;-63
2023/06/03 11:40:05;;;;;;;1.95;0.60;;;23.30;54.40;;;;;;5069690;28;20047;-64
2023/06/03 11:42:46;;;;;;;2.67;0.70;;;23.30;55.30;;;;;;5068621;28;20097;-65
2023/06/03 11:45:21;;;;;;;1.38;0.60;;;23.10;54.30;;;;;;5051963;28;20037;-62
2023/06/03 11:48:05;;;;;;;2.88;0.82;;;23.00;54.60;;;;;;5069459;28;20491;-65
2023/06/03 11:50:54;;;;;;;4.18;0.80;;;22.90;54.70;;;;;;5063808;28;20453;-64
2023/06/03 11:53:29;;;;;;;1.40;0.70;;;22.80;54.80;;;;;;5067513;28;20061;-63
2023/06/03 11:56:06;;;;;;;2.33;0.73;;;22.60;55.40;;;;;;5066914;28;20041;-63
2023/06/03 11:58:32;;;;;;;1.60;0.60;;;22.70;56.10;;;;;;5102242;28;20041;-65
2023/06/03 12:01:17;;;;;;;2.28;0.70;;;22.70;55.00;;;;;;5068479;28;20051;-64
2023/06/03 12:03:59;;;;;;;2.45;0.70;;;22.70;54.20;;;;;;5068741;28;20449;-64
2023/06/03 12:06:25;;;;;;;;;;;22.50;54.40;;;;;;5071382;28;20052;-65
2023/06/03 12:08:51;;;;;;;1.75;0.60;;;22.30;54.00;;;;;;5069227;28;19926;-64
2023/06/03 12:11:27;;;;;;;3.17;0.63;;;22.30;54.50;;;;;;5072072;28;20042;-65
2023/06/03 12:13:53;;;;;;;2.35;0.70;;;22.30;55.60;;;;;;5071895;28;20064;-63
2023/06/03 12:16:45;;;;;;;2.63;0.80;;;22.30;55.30;;;;;;5073632;28;20437;-63
2023/06/03 12:19:11;;;;;;;1.58;0.70;;;22.20;54.10;;;;;;5068519;28;20510;-64
2023/06/03 12:21:37;;;;;;;2.35;0.80;;;22.20;55.10;;;;;;5071279;28;20097;-63
2023/06/03 12:24:10;;;;;;;1.88;0.98;;;22.20;55.10;;;;;;5073525;28;20044;-66
2023/06/03 12:26:38;;;;;;;2.90;0.80;;;22.10;56.00;;;;;;5071887;28;20075;-64
2023/06/03 12:29:14;;;;;;;2.92;0.80;;;22.20;55.70;;;;;;5071791;28;20406;-65
2023/06/03 12:31:54;;;;;;;2.58;0.90;;;22.10;55.10;;;;;;5072685;28;20037;-64
2023/06/03 12:34:29;;;;;;;2.55;0.90;;;22.00;54.80;;;;;;5055181;28;20045;-63
2023/06/03 12:36:55;;;;;;;4.05;0.70;;;22.00;55.70;;;;;;5071713;28;20081;-65
2023/06/03 12:39:21;;;;;;;3.40;0.70;;;22.00;55.40;;;;;;5072711;28;20434;-63
2023/06/03 12:41:53;;;;;;;3.33;0.60;;;21.90;54.80;;;;;;5072802;28;20095;-64
2023/06/03 12:44:19;;;;;;;3.20;0.70;;;21.80;53.90;;;;;;5071741;28;20079;-63
2023/06/03 12:46:59;;;;;;;3.92;0.70;;;21.80;53.60;;;;;;5054773;28;20048;-63
2023/06/03 12:49:25;;;;;;;3.08;0.70;;;21.70;53.60;;;;;;5071313;28;20044;-64
2023/06/03 12:51:50;;;;;;;1.75;0.60;;;21.70;53.60;;;;;;5072347;28;20060;-62
2023/06/03 12:54:16;;;;;;;1.60;0.85;;;21.80;54.40;;;;;;5071385;28;20044;-64
2023/06/03 12:56:43;;;;;;;6.53;0.90;;;21.80;54.10;;;;;;5071241;28;20101;-64
2023/06/03 12:59:09;;;;;;;8.75;0.85;;;21.70;54.00;;;;;;5072627;28;20041;-63
2023/06/03 13:01:35;;;;;;;1.02;0.77;;;21.60;55.70;;;;;;5071248;28;20388;-63